createdAt,value
2022-08-18T00:02:03.087Z,19.70
2022-08-18T00:04:35.571Z,19.80
2022-08-18T00:07:08.147Z,19.70
2022-08-18T00:09:37.224Z,19.30
2022-08-18T00:12:09.647Z,19.20
2022-08-18T00:14:36.496Z,19.10
2022-08-18T00:17:03.868Z,19.10
2022-08-18T00:19:47.408Z,19.00
2022-08-18T00:22:18.155Z,19.00
2022-08-18T00:24:48.143Z,18.80
2022-08-18T00:27:23.986Z,18.70
2022-08-18T00:29:57.743Z,18.90
2022-08-18T00:32:28.593Z,18.90
2022-08-18T00:34:56.159Z,19.00
2022-08-18T00:37:24.359Z,19.10
2022-08-18T00:39:52.868Z,19.20
2022-08-18T00:42:29.140Z,19.20
2022-08-18T00:45:00.746Z,19.10
2022-08-18T00:47:42.478Z,19.10
2022-08-18T00:51:03.556Z,18.90
2022-08-18T00:53:49.599Z,18.50
2022-08-18T00:56:26.447Z,18.60
2022-08-18T00:58:58.287Z,18.70
2022-08-18T01:01:29.029Z,18.40
2022-08-18T01:04:05.707Z,18.40
2022-08-18T01:06:36.553Z,18.50
2022-08-18T01:09:03.868Z,18.80
2022-08-18T01:11:30.820Z,18.80
2022-08-18T01:13:58.851Z,18.70
2022-08-18T01:16:56.646Z,18.60
2022-08-18T01:19:44.592Z,18.70
2022-08-18T01:22:44.456Z,18.80
2022-08-18T01:25:29.675Z,18.90
2022-08-18T01:27:57.145Z,18.90
2022-08-18T01:30:28.015Z,18.50
2022-08-18T01:32:54.935Z,18.30
2022-08-18T01:35:25.620Z,18.20
2022-08-18T01:37:53.811Z,18.30
2022-08-18T01:41:24.532Z,18.50
2022-08-18T01:43:10.392Z,18.50
2022-08-18T01:45:37.227Z,18.50
2022-08-18T01:48:04.996Z,18.80
2022-08-18T01:50:34.747Z,18.60
2022-08-18T01:53:05.512Z,18.60
2022-08-18T01:55:35.702Z,18.60
2022-08-18T01:58:02.768Z,18.70
2022-08-18T02:00:29.993Z,18.80
2022-08-18T02:03:02.187Z,18.70
2022-08-18T02:05:51.128Z,18.40
2022-08-18T02:08:17.972Z,18.40
2022-08-18T02:10:44.834Z,18.20
2022-08-18T02:13:11.723Z,18.10
2022-08-18T02:15:38.525Z,18.00
2022-08-18T02:18:25.972Z,18.00
2022-08-18T02:21:19.212Z,18.20
2022-08-18T02:23:53.458Z,18.00
2022-08-18T02:26:21.014Z,18.10
2022-08-18T02:28:47.937Z,18.20
2022-08-18T02:31:18.015Z,17.70
2022-08-18T02:33:52.126Z,17.80
2022-08-18T02:36:20.569Z,18.10
2022-08-18T02:38:54.704Z,18.30
2022-08-18T02:41:29.652Z,17.80
2022-08-18T02:43:57.960Z,17.80
2022-08-18T02:46:29.666Z,17.80
2022-08-18T02:48:57.629Z,17.90
2022-08-18T02:51:25.711Z,18.00
2022-08-18T02:53:54.063Z,17.90
2022-08-18T02:56:40.222Z,17.60
2022-08-18T02:59:11.222Z,17.40
2022-08-18T03:01:41.352Z,17.30
2022-08-18T03:04:10.561Z,17.50
2022-08-18T03:06:39.342Z,17.70
2022-08-18T03:09:10.771Z,17.80
2022-08-18T03:11:38.347Z,17.80
2022-08-18T03:14:06.247Z,17.50
2022-08-18T03:16:47.623Z,17.20
2022-08-18T03:19:26.451Z,17.40
2022-08-18T03:21:55.045Z,17.50
2022-08-18T03:24:26.136Z,17.20
2022-08-18T03:26:54.307Z,17.10
2022-08-18T03:29:21.700Z,17.30
2022-08-18T03:31:49.123Z,17.30
2022-08-18T03:34:19.795Z,17.10
2022-08-18T03:36:48.564Z,16.80
2022-08-18T03:39:15.499Z,16.80
2022-08-18T03:41:58.536Z,16.90
2022-08-18T03:44:30.799Z,17.00
2022-08-18T03:46:57.945Z,17.10
2022-08-18T03:49:26.856Z,17.10
2022-08-18T03:51:53.796Z,17.00
2022-08-18T03:54:20.697Z,17.00
2022-08-18T03:56:49.497Z,16.70
2022-08-18T03:59:19.839Z,16.70
2022-08-18T04:01:49.307Z,17.00
2022-08-18T04:04:19.474Z,16.90
2022-08-18T04:06:55.825Z,16.70
2022-08-18T04:09:24.690Z,16.80
2022-08-18T04:11:52.278Z,16.90
2022-08-18T04:14:24.104Z,17.00
2022-08-18T04:16:50.953Z,16.90
2022-08-18T04:19:26.421Z,16.90
2022-08-18T04:21:56.659Z,16.90
2022-08-18T04:24:24.524Z,16.90
2022-08-18T04:26:52.025Z,17.00
2022-08-18T04:29:23.329Z,16.90
2022-08-18T04:31:51.942Z,16.90
2022-08-18T04:34:20.784Z,17.10
2022-08-18T04:36:48.165Z,17.20
2022-08-18T04:39:15.694Z,17.20
2022-08-18T04:41:43.970Z,17.00
2022-08-18T04:44:12.485Z,17.00
2022-08-18T04:46:42.673Z,17.10
2022-08-18T04:49:10.887Z,17.20
2022-08-18T04:52:34.067Z,17.40
2022-08-18T04:54:28.958Z,17.40
2022-08-18T04:56:55.830Z,17.50
2022-08-18T04:59:22.739Z,17.50
2022-08-18T05:01:49.536Z,17.50
2022-08-18T05:04:17.733Z,17.60
2022-08-18T05:06:45.697Z,17.60
2022-08-18T05:09:16.772Z,17.60
2022-08-18T05:11:51.092Z,17.70
2022-08-18T05:14:18.435Z,17.90
2022-08-18T05:16:48.527Z,17.90
2022-08-18T05:19:23.379Z,18.00
2022-08-18T05:21:59.909Z,18.10
2022-08-18T05:24:34.121Z,18.20
2022-08-18T05:27:05.403Z,18.30
2022-08-18T05:29:45.541Z,18.50
2022-08-18T05:32:37.355Z,18.50
2022-08-18T05:35:07.168Z,18.60
2022-08-18T05:38:15.748Z,18.70
2022-08-18T05:40:46.137Z,18.80
2022-08-18T05:43:16.354Z,18.90
2022-08-18T05:45:43.417Z,19.10
2022-08-18T05:48:10.228Z,19.20
2022-08-18T05:50:37.949Z,19.30
2022-08-18T05:53:14.615Z,19.30
2022-08-18T05:56:28.888Z,19.40
2022-08-18T05:58:57.468Z,19.60
2022-08-18T06:01:30.266Z,19.60
2022-08-18T06:04:09.167Z,19.70
2022-08-18T06:06:37.284Z,19.90
2022-08-18T06:09:40.672Z,19.90
2022-08-18T06:12:24.367Z,20.10
2022-08-18T06:14:52.545Z,20.20
2022-08-18T06:17:32.978Z,20.40
2022-08-18T06:20:17.925Z,20.60
2022-08-18T06:23:08.268Z,20.70
2022-08-18T06:25:55.421Z,20.90
2022-08-18T06:28:22.382Z,21.00
2022-08-18T06:31:04.239Z,21.10
2022-08-18T06:33:31.736Z,21.40
2022-08-18T06:36:12.726Z,21.60
2022-08-18T06:38:48.040Z,21.80
2022-08-18T06:41:41.007Z,22.00
2022-08-18T06:44:13.726Z,22.10
2022-08-18T06:47:08.213Z,22.30
2022-08-18T06:49:43.951Z,22.50
2022-08-18T06:52:29.306Z,22.70
2022-08-18T06:55:02.211Z,22.80
2022-08-18T06:57:34.672Z,23.00
2022-08-18T07:00:24.396Z,23.00
2022-08-18T07:03:03.009Z,23.20
2022-08-18T07:05:32.619Z,23.50
2022-08-18T07:08:28.427Z,23.60
2022-08-18T07:10:55.431Z,23.70
2022-08-18T07:13:25.596Z,23.80
2022-08-18T07:15:56.938Z,23.90
2022-08-18T07:18:28.782Z,24.00
2022-08-18T07:21:01.009Z,24.20
2022-08-18T07:23:33.922Z,24.60
2022-08-18T07:26:15.669Z,24.80
2022-08-18T07:28:45.150Z,24.90
2022-08-18T07:31:17.398Z,25.20
2022-08-18T07:33:52.257Z,25.20
2022-08-18T07:36:21.659Z,25.60
2022-08-18T07:39:14.398Z,25.50
2022-08-18T07:42:07.454Z,25.50
2022-08-18T07:44:45.277Z,25.70
2022-08-18T07:47:36.173Z,25.80
2022-08-18T07:50:27.057Z,26.10
2022-08-18T07:52:56.529Z,26.30
2022-08-18T07:55:28.351Z,26.40
2022-08-18T07:58:15.477Z,26.90
2022-08-18T08:00:58.804Z,27.00
2022-08-18T08:03:41.594Z,27.20
2022-08-18T08:06:12.650Z,27.20
2022-08-18T08:08:43.296Z,27.50
2022-08-18T08:11:44.536Z,27.50
2022-08-18T08:14:26.856Z,27.40
2022-08-18T08:17:25.172Z,27.50
2022-08-18T08:20:19.307Z,27.70
2022-08-18T08:23:09.627Z,27.70
2022-08-18T08:26:03.030Z,27.90
2022-08-18T08:28:56.038Z,28.00
2022-08-18T08:31:42.443Z,28.00
2022-08-18T08:34:28.563Z,28.10
2022-08-18T08:37:02.947Z,28.40
2022-08-18T08:39:46.353Z,28.40
2022-08-18T08:42:31.929Z,28.40
2022-08-18T08:45:24.828Z,28.70
2022-08-18T08:48:08.548Z,28.90
2022-08-18T08:50:48.604Z,29.00
2022-08-18T08:53:22.100Z,29.20
2022-08-18T08:56:01.586Z,29.30
2022-08-18T08:58:48.371Z,29.10
2022-08-18T09:01:30.069Z,29.20
2022-08-18T09:04:07.271Z,29.20
2022-08-18T09:06:46.821Z,29.30
2022-08-18T09:09:19.337Z,29.50
2022-08-18T09:12:01.309Z,29.60
2022-08-18T09:14:50.637Z,30.00
2022-08-18T09:17:34.344Z,30.00
2022-08-18T09:20:18.382Z,30.10
2022-08-18T09:23:20.424Z,30.20
2022-08-18T09:25:56.483Z,30.10
2022-08-18T09:28:29.410Z,30.20
2022-08-18T09:31:02.484Z,30.20
2022-08-18T09:33:44.476Z,30.30
2022-08-18T09:36:36.357Z,30.20
2022-08-18T09:39:54.949Z,30.40
2022-08-18T09:42:48.359Z,30.60
2022-08-18T09:48:30.480Z,30.50
2022-08-18T09:54:21.266Z,30.80
2022-08-18T09:56:54.234Z,31.00
2022-08-18T09:59:35.115Z,30.80
2022-08-18T10:02:03.878Z,30.60
2022-08-18T10:04:35.734Z,30.40
2022-08-18T10:07:43.576Z,30.50
2022-08-18T10:11:01.084Z,30.70
2022-08-18T10:13:16.834Z,30.90
2022-08-18T10:15:43.607Z,31.00
2022-08-18T10:18:39.543Z,31.10
2022-08-18T10:21:22.742Z,31.10
2022-08-18T10:24:29.424Z,31.10
2022-08-18T10:26:54.570Z,31.10
2022-08-18T10:29:26.037Z,31.30
2022-08-18T10:31:55.810Z,31.50
2022-08-18T10:37:43.537Z,31.60
2022-08-18T10:40:13.352Z,31.70
2022-08-18T10:42:44.939Z,31.80
2022-08-18T10:45:30.596Z,31.80
2022-08-18T10:48:24.411Z,31.70
2022-08-18T10:51:05.712Z,31.40
2022-08-18T10:53:44.051Z,31.80
2022-08-18T10:56:43.865Z,31.70
2022-08-18T10:59:17.963Z,31.70
2022-08-18T11:02:06.634Z,32.20
2022-08-18T11:04:41.215Z,32.20
2022-08-18T11:07:19.426Z,32.30
2022-08-18T11:10:04.255Z,32.10
2022-08-18T11:12:50.116Z,32.50
2022-08-18T11:15:29.032Z,32.30
2022-08-18T11:18:30.973Z,32.00
2022-08-18T11:21:25.799Z,32.20
2022-08-18T11:24:07.695Z,32.90
2022-08-18T11:26:45.535Z,32.90
2022-08-18T11:29:27.018Z,33.10
2022-08-18T11:35:16.165Z,33.10
2022-08-18T11:37:53.330Z,33.10
2022-08-18T11:43:15.165Z,33.30
2022-08-18T11:45:46.645Z,33.20
2022-08-18T11:51:25.504Z,33.50
2022-08-18T11:54:05.059Z,33.30
2022-08-18T11:56:37.913Z,33.40
2022-08-18T11:59:35.054Z,33.40
2022-08-18T12:02:21.325Z,33.40
2022-08-18T12:05:03.027Z,33.30
2022-08-18T12:07:35.763Z,33.50
2022-08-18T12:13:02.877Z,33.30
2022-08-18T12:15:44.131Z,33.30
2022-08-18T12:18:18.989Z,33.50
2022-08-18T12:20:53.377Z,33.50
2022-08-18T12:23:20.170Z,33.70
2022-08-18T12:25:48.091Z,33.60
2022-08-18T12:28:19.721Z,33.60
2022-08-18T12:33:47.754Z,33.70
2022-08-18T12:36:15.851Z,33.70
2022-08-18T12:38:44.988Z,33.80
2022-08-18T12:41:23.553Z,33.90
2022-08-18T12:43:58.857Z,33.80
2022-08-18T12:46:26.852Z,33.50
2022-08-18T12:48:53.868Z,33.40
2022-08-18T12:51:24.749Z,33.30
2022-08-18T12:53:59.394Z,33.00
2022-08-18T12:56:30.374Z,33.00
2022-08-18T12:59:05.123Z,33.10
2022-08-18T13:01:33.576Z,33.00
2022-08-18T13:04:12.994Z,32.90
2022-08-18T13:07:05.960Z,33.00
2022-08-18T13:09:52.651Z,32.90
2022-08-18T13:12:20.400Z,32.60
2022-08-18T13:14:47.995Z,32.60
2022-08-18T13:17:33.104Z,32.60
2022-08-18T13:20:09.416Z,32.70
2022-08-18T13:22:40.507Z,32.70
2022-08-18T13:25:08.292Z,32.70
2022-08-18T13:27:37.397Z,32.90
2022-08-18T13:30:16.805Z,32.90
2022-08-18T13:32:58.671Z,32.80
2022-08-18T13:35:29.938Z,32.80
2022-08-18T13:38:15.699Z,33.00
2022-08-18T13:40:50.911Z,33.20
2022-08-18T13:43:21.767Z,33.00
2022-08-18T13:45:52.900Z,32.70
2022-08-18T13:48:20.572Z,32.80
2022-08-18T13:50:47.747Z,33.00
2022-08-18T13:53:21.794Z,33.00
2022-08-18T13:55:49.856Z,33.20
2022-08-18T13:58:21.100Z,33.00
2022-08-18T14:00:54.004Z,32.80
2022-08-18T14:03:42.151Z,32.70
2022-08-18T14:06:11.597Z,32.50
2022-08-18T14:08:40.318Z,32.30
2022-08-18T14:11:07.506Z,32.00
2022-08-18T14:13:44.021Z,31.90
2022-08-18T14:16:18.899Z,31.70
2022-08-18T14:19:09.869Z,29.60
2022-08-18T14:22:11.174Z,28.10
2022-08-18T14:24:58.627Z,27.10
2022-08-18T14:27:35.052Z,25.80
2022-08-18T14:30:08.050Z,25.60
2022-08-18T14:32:36.279Z,25.10
2022-08-18T14:36:03.863Z,25.00
2022-08-18T14:38:10.027Z,24.70
2022-08-18T14:40:41.844Z,24.10
2022-08-18T14:44:13.287Z,23.80
2022-08-18T14:46:43.411Z,24.00
2022-08-18T14:49:48.019Z,24.10
2022-08-18T14:52:59.507Z,24.00
2022-08-18T15:00:08.381Z,23.80
2022-08-18T15:03:31.092Z,23.80
2022-08-18T15:06:17.017Z,23.50
2022-08-18T15:08:49.491Z,23.70
2022-08-18T15:11:19.147Z,23.60
2022-08-18T15:14:20.502Z,23.60
2022-08-18T15:16:53.585Z,24.00
2022-08-18T15:19:58.741Z,24.20
2022-08-18T15:26:10.783Z,24.50
2022-08-18T15:28:40.399Z,24.20
2022-08-18T15:35:16.393Z,24.30
2022-08-18T15:41:48.658Z,24.80
2022-08-18T15:44:18.318Z,24.70
2022-08-18T15:46:47.158Z,24.80
2022-08-18T15:49:33.926Z,24.90
2022-08-18T15:52:00.776Z,24.90
2022-08-18T15:54:36.056Z,24.90
2022-08-18T15:57:02.908Z,24.80
2022-08-18T15:59:34.428Z,24.80
2022-08-18T16:02:11.808Z,24.80
2022-08-18T16:04:41.227Z,24.70
2022-08-18T16:07:11.913Z,24.70
2022-08-18T16:09:38.906Z,24.80
2022-08-18T16:12:09.102Z,24.80
2022-08-18T16:14:40.170Z,24.70
2022-08-18T16:17:09.405Z,24.50
2022-08-18T16:19:44.929Z,24.60
2022-08-18T16:22:11.898Z,24.60
2022-08-18T16:24:38.937Z,24.60
2022-08-18T16:27:06.661Z,24.60
2022-08-18T16:29:33.750Z,24.50
2022-08-18T16:32:00.535Z,24.50
2022-08-18T16:34:31.036Z,24.50
2022-08-18T16:36:58.149Z,24.40
2022-08-18T16:39:24.965Z,24.40
2022-08-18T16:41:51.785Z,24.30
2022-08-18T16:44:19.379Z,24.30
2022-08-18T16:46:46.598Z,24.30
2022-08-18T16:49:13.410Z,24.10
2022-08-18T16:51:40.928Z,23.80
2022-08-18T16:54:07.723Z,23.70
2022-08-18T16:56:35.922Z,23.80
2022-08-18T16:59:21.428Z,23.80
2022-08-18T17:02:06.768Z,23.50
2022-08-18T17:04:34.206Z,23.50
2022-08-18T17:07:04.751Z,23.20
2022-08-18T17:09:33.215Z,22.80
2022-08-18T17:12:00.906Z,22.80
2022-08-18T17:14:30.290Z,23.00
2022-08-18T17:16:58.631Z,23.00
2022-08-18T17:19:29.998Z,23.00
2022-08-18T17:21:57.136Z,22.90
2022-08-18T17:24:31.812Z,22.80
2022-08-18T17:27:27.236Z,22.70
2022-08-18T17:30:08.547Z,22.60
2022-08-18T17:32:47.849Z,22.60
2022-08-18T17:35:16.562Z,22.10
2022-08-18T17:41:24.635Z,21.80
2022-08-18T17:43:54.643Z,21.80
2022-08-18T17:46:38.480Z,21.60
2022-08-18T17:49:17.831Z,21.20
2022-08-18T17:51:55.197Z,20.70
2022-08-18T17:54:36.970Z,20.70
2022-08-18T17:57:12.518Z,20.80
2022-08-18T17:59:53.880Z,21.00
2022-08-18T18:02:29.547Z,20.80
2022-08-18T18:04:59.820Z,20.50
2022-08-18T18:07:53.166Z,20.70
2022-08-18T18:11:05.480Z,20.80
2022-08-18T18:13:33.121Z,20.40
2022-08-18T18:16:21.683Z,20.30
2022-08-18T18:18:59.963Z,20.50
2022-08-18T18:22:00.165Z,20.50
2022-08-18T18:24:16.026Z,20.00
2022-08-18T18:26:48.031Z,19.90
2022-08-18T18:29:37.742Z,20.10
2022-08-18T18:32:24.197Z,20.00
2022-08-18T18:35:18.052Z,19.70
2022-08-18T18:38:04.626Z,19.80
2022-08-18T18:40:36.396Z,19.60
2022-08-18T18:43:28.879Z,19.60
2022-08-18T18:46:05.006Z,19.90
2022-08-18T18:48:54.543Z,20.00
2022-08-18T18:51:58.853Z,19.60
2022-08-18T18:54:43.793Z,19.20
2022-08-18T18:57:37.849Z,19.20
2022-08-18T19:00:30.224Z,19.00
2022-08-18T19:03:17.691Z,19.00
2022-08-18T19:05:57.470Z,19.00
2022-08-18T19:09:02.716Z,19.20
2022-08-18T19:11:45.255Z,19.40
2022-08-18T19:14:20.088Z,19.50
2022-08-18T19:16:46.830Z,19.10
2022-08-18T19:19:36.750Z,19.10
2022-08-18T19:22:29.552Z,19.30
2022-08-18T19:25:03.437Z,19.40
2022-08-18T19:27:56.609Z,19.40
2022-08-18T19:30:23.870Z,19.10
2022-08-18T19:33:00.476Z,18.90
2022-08-18T19:35:58.609Z,19.10
2022-08-18T19:38:49.958Z,19.00
2022-08-18T19:46:32.189Z,18.60
2022-08-18T19:49:06.039Z,18.60
2022-08-18T19:51:42.313Z,18.30
2022-08-18T19:54:27.804Z,18.40
2022-08-18T19:57:32.124Z,18.50
2022-08-18T20:00:18.278Z,18.50
2022-08-18T20:03:04.220Z,18.30
2022-08-18T20:05:36.400Z,18.50
2022-08-18T20:08:27.656Z,18.50
2022-08-18T20:11:15.934Z,18.20
2022-08-18T20:13:45.471Z,18.00
2022-08-18T20:16:44.231Z,18.30
2022-08-18T20:19:31.491Z,18.10
2022-08-18T20:22:04.073Z,18.10
2022-08-18T20:24:30.776Z,18.20
2022-08-18T20:27:40.872Z,18.20
2022-08-18T20:30:19.754Z,18.30
2022-08-18T20:33:20.620Z,18.20
2022-08-18T20:36:03.911Z,18.20
2022-08-18T20:38:49.207Z,18.10
2022-08-18T20:41:44.530Z,17.90
2022-08-18T20:44:29.894Z,18.10
2022-08-18T20:47:33.983Z,18.30
2022-08-18T20:50:00.727Z,18.10
2022-08-18T20:52:58.176Z,18.00
2022-08-18T20:55:30.616Z,18.00
2022-08-18T20:58:08.322Z,17.70
2022-08-18T21:00:41.365Z,17.90
2022-08-18T21:03:12.432Z,17.90
2022-08-18T21:05:43.629Z,17.90
2022-08-18T21:08:16.508Z,17.60
2022-08-18T21:10:55.624Z,17.80
2022-08-18T21:13:46.067Z,18.00
2022-08-18T21:16:38.853Z,18.10
2022-08-18T21:19:40.198Z,18.00
2022-08-18T21:22:10.509Z,18.00
2022-08-18T21:24:38.981Z,18.10
2022-08-18T21:27:11.477Z,18.10
2022-08-18T21:29:47.390Z,17.50
2022-08-18T21:32:24.810Z,17.50
2022-08-18T21:34:51.855Z,17.20
2022-08-18T21:37:20.209Z,17.10
2022-08-18T21:39:48.305Z,17.30
2022-08-18T21:42:27.865Z,17.40
2022-08-18T21:45:00.865Z,17.60
2022-08-18T21:47:29.979Z,17.80
2022-08-18T21:50:17.535Z,17.80
2022-08-18T21:53:02.202Z,17.70
2022-08-18T21:55:37.313Z,17.80
2022-08-18T21:58:10.002Z,17.90
2022-08-18T22:00:39.552Z,17.70
2022-08-18T22:03:23.548Z,17.50
2022-08-18T22:06:18.966Z,17.60
2022-08-18T22:08:49.885Z,17.70
2022-08-18T22:12:00.833Z,17.40
2022-08-18T22:14:54.806Z,17.30
2022-08-18T22:17:28.630Z,17.10
2022-08-18T22:20:15.876Z,17.00
2022-08-18T22:23:08.729Z,17.00
2022-08-18T22:25:35.540Z,17.20
2022-08-18T22:28:02.474Z,17.00
2022-08-18T22:30:29.277Z,16.90
2022-08-18T22:32:56.063Z,16.90
2022-08-18T22:35:23.382Z,17.00
2022-08-18T22:37:50.936Z,17.10
2022-08-18T22:40:21.504Z,17.20
2022-08-18T22:42:49.088Z,17.20
2022-08-18T22:45:16.060Z,17.10
2022-08-18T22:47:45.090Z,16.90
2022-08-18T22:50:13.750Z,17.00
2022-08-18T22:52:48.251Z,17.10
2022-08-18T22:55:22.045Z,17.20
2022-08-18T22:57:55.772Z,17.40
2022-08-18T23:00:25.329Z,17.40
2022-08-18T23:02:53.973Z,17.20
2022-08-18T23:05:21.763Z,16.70
2022-08-18T23:07:48.926Z,16.90
2022-08-18T23:10:16.751Z,17.00
2022-08-18T23:12:44.601Z,17.10
2022-08-18T23:15:11.796Z,17.00
2022-08-18T23:17:40.680Z,16.90
2022-08-18T23:20:11.363Z,16.60
2022-08-18T23:22:39.080Z,16.70
2022-08-18T23:25:08.792Z,17.00
2022-08-18T23:27:36.716Z,16.90
2022-08-18T23:30:04.874Z,16.70
2022-08-18T23:32:32.229Z,16.80
2022-08-18T23:34:59.428Z,16.80
2022-08-18T23:37:26.506Z,16.80
2022-08-18T23:39:53.411Z,16.80
2022-08-18T23:42:22.987Z,16.40
2022-08-18T23:44:50.431Z,16.50
2022-08-18T23:47:19.582Z,16.30
2022-08-18T23:49:46.743Z,16.30
2022-08-18T23:52:13.780Z,16.20
2022-08-18T23:54:40.612Z,16.30
2022-08-18T23:57:07.409Z,16.20
2022-08-18T23:59:34.254Z,16.30
